Terminal Aerodrome Forecast
Issued by NWS Boise, ID

Home | Current Version | Previous Version | Text Only | Print | Product List | Glossary On
Versions: 1 2 3 4 5 6 7 8 9 10 11 12 13
000
FTUS45 KBOI 301733
TAFBNO
TAF
KBNO 301733Z 3018/3118 22006KT P6SM SKC
     FM302000 26010G20KT P6SM SKC
     FM310400 26010KT P6SM SKC=

USA.gov is the U.S. government's official web portal to all federal, state and local government web resources and services.